Meath Environmental Platform

Observations for Trim Market St

Time AQI Temp °C Hum % Pres Pa CO μg/m³ H₂S μg/m³ NO μg/m³ NO₂ μg/m³ O₃ μg/m³ SO₂ μg/m³ PM1 μg/m³ PM2.5 μg/m³ PM10 μg/m³
Thursday 13 August 2026
21:10 3 28.2 50 57,915 0 6.86 0.73 27.46 51.11 0 0.71 2.46 2.7
21:09 3 28.3 50 58,051 0 12.58 0.74 53.64 42.78 0 0.71 2.46 2.7
21:08 3 28.3 50 58,473 0 6.94 0.74 49.86 41.6 0 0.71 2.47 2.72
21:07 3 28.4 50 58,600 0 7.58 0.65 26.5 55.09 0 0 2.47 2.72
21:06 3 28.4 50 58,815 0 7.47 0.64 43.54 46.06 0 0.71 2.47 2.72
21:05 3 28.4 49 59,034 0 8.59 0.55 37.98 49.54 0 0 2.99 3.03
21:04 3 28.4 49 59,360 0 7.25 0.49 27.36 55.35 0 0.71 3 3.03
21:00 3 28.6 49 60,009 0 8.45 0.49 23.34 57.17 0 0 3.02 3.76
20:57 3 28.7 48 60,815 0 7.67 0.67 30.06 53.97 0 0 3.04 3.34
20:54 3 28.8 48 61,330 0 6.64 0.58 58.89 38.59 0 1.43 5.12 7.53
20:49 3 29 48 62,405 0 7.11 0.49 23.19 58.16 0 0.71 3.08 3.39
20:46 3 29.1 47 62,614 0 8.18 0.51 18.04 56.07 0 0.71 3.09 3.4
20:45 3 29.1 47 62,780 0 8.13 0.51 27.15 56.39 0 0.71 3.61 3.71
20:43 3 29.2 47 63,153 0 8.15 0.47 40.61 50.3 0 0 3.11 4.47
20:42 3 29.2 47 63,410 0 7.83 0.48 29.56 56.12 0 1.43 3.64 3.7
20:41 3 29.2 46 63,606 0 6.14 0.45 21.99 58.83 0 0.71 3.64 5.23
20:40 3 29.3 46 63,762 0 2.47 0.42 14.74 56.3 0 0.71 3.12 3.69
20:38 3 29.3 46 63,831 0 6.21 0.43 39.56 51.89 0 0.71 3.65 3.69
20:37 3 29.4 46 63,918 0 5.86 0.46 19.55 59.25 0 0 2.61 2.87
20:36 3 29.4 46 63,997 0 5.89 0.44 18.84 58.16 0 0 2.62 2.88